sensor_id;sensor_type;location;lat;lon;timestamp;pressure;altitude;pressure_sealevel;temperature;humidity
57799;BME280;43626;53.866;30.298;2023-04-30T00:01:36;1025.2;;;6.6;52.9
57799;BME280;43626;53.866;30.298;2023-04-30T00:06:36;1025.2;;;6.6;52.9
57799;BME280;43626;53.866;30.298;2023-04-30T00:11:48;1025.2;;;6.5;52.8
57799;BME280;43626;53.866;30.298;2023-04-30T00:17:02;1025.2;;;6.5;52.7
57799;BME280;43626;53.866;30.298;2023-04-30T00:22:00;1025.3;;;6.4;52.7
57799;BME280;43626;53.866;30.298;2023-04-30T00:26:34;1025.3;;;6.3;53
57799;BME280;43626;53.866;30.298;2023-04-30T00:32:00;1025.3;;;6.3;53.4
57799;BME280;43626;53.866;30.298;2023-04-30T00:36:53;1025.4;;;6.2;53.6
57799;BME280;43626;53.866;30.298;2023-04-30T00:41:40;1025.4;;;6.1;53.5
57799;BME280;43626;53.866;30.298;2023-04-30T00:46:20;1025.4;;;6.1;53.6
57799;BME280;43626;53.866;30.298;2023-04-30T00:52:00;1025.3;;;6.1;53.5
57799;BME280;43626;53.866;30.298;2023-04-30T00:56:14;1025.3;;;6.1;53.4
57799;BME280;43626;53.866;30.298;2023-04-30T01:01:34;1025.3;;;6;53.4
57799;BME280;43626;53.866;30.298;2023-04-30T01:07:00;1025.3;;;6;53.4
57799;BME280;43626;53.866;30.298;2023-04-30T01:11:44;1025.3;;;6;53.3
57799;BME280;43626;53.866;30.298;2023-04-30T01:16:53;1025.3;;;5.9;53.6
57799;BME280;43626;53.866;30.298;2023-04-30T01:21:27;1025.3;;;5.9;53.9
57799;BME280;43626;53.866;30.298;2023-04-30T01:26:17;1025.2;;;5.8;54
57799;BME280;43626;53.866;30.298;2023-04-30T01:31:52;1025.2;;;5.8;54
57799;BME280;43626;53.866;30.298;2023-04-30T01:36:42;1025.2;;;5.7;54
57799;BME280;43626;53.866;30.298;2023-04-30T01:41:26;1025.1;;;5.7;54
57799;BME280;43626;53.866;30.298;2023-04-30T01:46:52;1025.1;;;5.7;53.9
57799;BME280;43626;53.866;30.298;2023-04-30T01:52:05;1025.1;;;5.7;53.8
57799;BME280;43626;53.866;30.298;2023-04-30T01:56:35;1025.1;;;5.7;53.7
57799;BME280;43626;53.866;30.298;2023-04-30T02:01:39;1025.1;;;5.6;53.7
57799;BME280;43626;53.866;30.298;2023-04-30T02:06:53;1025;;;5.6;53.7
57799;BME280;43626;53.866;30.298;2023-04-30T02:12:00;1025;;;5.5;53.8
57799;BME280;43626;53.866;30.298;2023-04-30T02:16:38;1024.9;;;5.5;54.1
57799;BME280;43626;53.866;30.298;2023-04-30T02:21:14;1024.9;;;5.4;54.1
57799;BME280;43626;53.866;30.298;2023-04-30T02:27:01;1024.8;;;5.4;54.3
57799;BME280;43626;53.866;30.298;2023-04-30T02:31:38;1024.8;;;5.4;54.2
57799;BME280;43626;53.866;30.298;2023-04-30T02:36:15;1024.7;;;5.4;54.3
57799;BME280;43626;53.866;30.298;2023-04-30T02:41:33;1024.6;;;5.5;54.7
57799;BME280;43626;53.866;30.298;2023-04-30T02:47:01;1024.6;;;5.6;54.4
57799;BME280;43626;53.866;30.298;2023-04-30T02:51:14;1024.6;;;5.6;54.2
57799;BME280;43626;53.866;30.298;2023-04-30T02:57:01;1024.6;;;5.6;54.1
57799;BME280;43626;53.866;30.298;2023-04-30T03:02:01;1024.6;;;5.6;54.1
57799;BME280;43626;53.866;30.298;2023-04-30T03:06:15;1024.6;;;5.5;54.4
57799;BME280;43626;53.866;30.298;2023-04-30T03:11:15;1024.6;;;5.5;54.5
57799;BME280;43626;53.866;30.298;2023-04-30T03:16:47;1024.6;;;5.5;54.5
57799;BME280;43626;53.866;30.298;2023-04-30T03:21:47;1024.7;;;5.5;54.4
57799;BME280;43626;53.866;30.298;2023-04-30T03:27:01;1024.7;;;5.5;54.6
57799;BME280;43626;53.866;30.298;2023-04-30T03:31:39;1024.7;;;5.5;54.8
57799;BME280;43626;53.866;30.298;2023-04-30T03:37:01;1024.7;;;5.6;54.7
57799;BME280;43626;53.866;30.298;2023-04-30T03:41:47;1024.7;;;5.7;54.7
57799;BME280;43626;53.866;30.298;2023-04-30T03:46:15;1024.6;;;5.8;54.6
57799;BME280;43626;53.866;30.298;2023-04-30T03:52:01;1024.6;;;5.9;54.5
57799;BME280;43626;53.866;30.298;2023-04-30T03:57:01;1024.5;;;5.9;54.9
57799;BME280;43626;53.866;30.298;2023-04-30T04:01:53;1024.4;;;6;55.5
57799;BME280;43626;53.866;30.298;2023-04-30T04:06:47;1024.3;;;6.2;55.6
57799;BME280;43626;53.866;30.298;2023-04-30T04:11:41;1024.3;;;6.4;55.3
57799;BME280;43626;53.866;30.298;2023-04-30T04:16:39;1024.3;;;6.6;55.2
57799;BME280;43626;53.866;30.298;2023-04-30T04:21:45;1024.3;;;6.8;55.1
57799;BME280;43626;53.866;30.298;2023-04-30T04:26:39;1024.3;;;7;54.4
57799;BME280;43626;53.866;30.298;2023-04-30T04:31:27;1024.4;;;7.3;53.8
57799;BME280;43626;53.866;30.298;2023-04-30T04:37:01;1024.4;;;7.5;53.3
57799;BME280;43626;53.866;30.298;2023-04-30T04:42:01;1024.4;;;7.7;52.9
57799;BME280;43626;53.866;30.298;2023-04-30T04:46:15;1024.3;;;7.9;52.7
57799;BME280;43626;53.866;30.298;2023-04-30T04:51:47;1024.3;;;8.1;52.4
57799;BME280;43626;53.866;30.298;2023-04-30T04:56:17;1024.3;;;8.3;51.5
57799;BME280;43626;53.866;30.298;2023-04-30T05:01:47;1024.3;;;8.5;50.9
57799;BME280;43626;53.866;30.298;2023-04-30T05:06:23;1024.3;;;8.7;50
57799;BME280;43626;53.866;30.298;2023-04-30T05:11:47;1024.2;;;8.9;49.1
57799;BME280;43626;53.866;30.298;2023-04-30T05:17:01;1024.2;;;9.1;47.9
57799;BME280;43626;53.866;30.298;2023-04-30T05:22:01;1024.2;;;9.3;47.3
57799;BME280;43626;53.866;30.298;2023-04-30T05:26:33;1024.1;;;9.6;46.7
57799;BME280;43626;53.866;30.298;2023-04-30T05:32:01;1024.1;;;9.9;46.1
57799;BME280;43626;53.866;30.298;2023-04-30T05:36:51;1024.1;;;10;45.7
57799;BME280;43626;53.866;30.298;2023-04-30T05:41:15;1024.1;;;10.2;45.5
57799;BME280;43626;53.866;30.298;2023-04-30T05:46:33;1024.1;;;10.3;44.1
57799;BME280;43626;53.866;30.298;2023-04-30T05:52:01;1024.1;;;10.6;42.6
57799;BME280;43626;53.866;30.298;2023-04-30T05:56:27;1024;;;10.8;42
57799;BME280;43626;53.866;30.298;2023-04-30T06:01:45;1024;;;11;41.6
57799;BME280;43626;53.866;30.298;2023-04-30T06:06:59;1024;;;11.2;40
57799;BME280;43626;53.866;30.298;2023-04-30T06:11:23;1023.9;;;11.3;39.6
57799;BME280;43626;53.866;30.298;2023-04-30T06:16:45;1023.9;;;11.5;39.5
57799;BME280;43626;53.866;30.298;2023-04-30T06:21:39;1023.9;;;11.7;39.5
57799;BME280;43626;53.866;30.298;2023-04-30T06:26:15;1023.8;;;11.9;39.6
57799;BME280;43626;53.866;30.298;2023-04-30T06:31:41;1023.8;;;12.1;39.4
57799;BME280;43626;53.866;30.298;2023-04-30T06:36:39;1023.8;;;12.3;39.1
57799;BME280;43626;53.866;30.298;2023-04-30T06:41:33;1023.7;;;12.3;37.7
57799;BME280;43626;53.866;30.298;2023-04-30T06:47:01;1023.7;;;12.5;37.6
57799;BME280;43626;53.866;30.298;2023-04-30T06:51:53;1023.7;;;12.7;36.5
57799;BME280;43626;53.866;30.298;2023-04-30T06:56:27;1023.6;;;12.9;36.4
57799;BME280;43626;53.866;30.298;2023-04-30T07:01:27;1023.5;;;13.1;34.6
57799;BME280;43626;53.866;30.298;2023-04-30T07:06:55;1023.5;;;13.2;35.4
57799;BME280;43626;53.866;30.298;2023-04-30T07:12:03;1023.4;;;13.4;35
57799;BME280;43626;53.866;30.298;2023-04-30T07:16:31;1023.3;;;13.6;34.4
57799;BME280;43626;53.866;30.298;2023-04-30T07:21:21;1023.3;;;13.7;33.7
57799;BME280;43626;53.866;30.298;2023-04-30T07:27:03;1023.3;;;13.8;32.8
57799;BME280;43626;53.866;30.298;2023-04-30T07:31:41;1023.2;;;13.9;31.8
57799;BME280;43626;53.866;30.298;2023-04-30T07:36:27;1023.2;;;13.9;30.9
57799;BME280;43626;53.866;30.298;2023-04-30T07:41:27;1023.1;;;14;29.7
57799;BME280;43626;53.866;30.298;2023-04-30T07:47:03;1023;;;14;30.3
57799;BME280;43626;53.866;30.298;2023-04-30T07:51:27;1022.9;;;14.2;30.1
57799;BME280;43626;53.866;30.298;2023-04-30T07:56:47;1022.9;;;14.2;30
57799;BME280;43626;53.866;30.298;2023-04-30T08:01:55;1022.8;;;14.3;30.2
57799;BME280;43626;53.866;30.298;2023-04-30T08:06:29;1022.7;;;14.4;29.8
57799;BME280;43626;53.866;30.298;2023-04-30T08:11:39;1022.7;;;14.6;30.4
57799;BME280;43626;53.866;30.298;2023-04-30T08:16:49;1022.6;;;14.7;29.8
57799;BME280;43626;53.866;30.298;2023-04-30T08:22:03;1022.6;;;14.8;29.8
57799;BME280;43626;53.866;30.298;2023-04-30T08:27:03;1022.6;;;14.9;29.6
57799;BME280;43626;53.866;30.298;2023-04-30T08:31:13;1022.6;;;15.1;29.4
57799;BME280;43626;53.866;30.298;2023-04-30T08:37:03;1022.6;;;15.1;28.8
57799;BME280;43626;53.866;30.298;2023-04-30T08:41:53;1022.5;;;15.2;28.9
57799;BME280;43626;53.866;30.298;2023-04-30T08:46:13;1022.5;;;15.3;27.7
57799;BME280;43626;53.866;30.298;2023-04-30T08:51:13;1022.4;;;15.4;28.6
57799;BME280;43626;53.866;30.298;2023-04-30T08:57:03;1022.4;;;15.5;28.5
57799;BME280;43626;53.866;30.298;2023-04-30T09:01:33;1022.3;;;15.7;28.8
57799;BME280;43626;53.866;30.298;2023-04-30T09:06:51;1022.2;;;15.8;28.1
57799;BME280;43626;53.866;30.298;2023-04-30T09:12:11;1022.1;;;15.8;28.4
57799;BME280;43626;53.866;30.298;2023-04-30T09:16:46;1022.1;;;15.8;28.3
57799;BME280;43626;53.866;30.298;2023-04-30T09:21:39;1022;;;15.8;28.5
57799;BME280;43626;53.866;30.298;2023-04-30T09:26:41;1022;;;15.8;27.2
57799;BME280;43626;53.866;30.298;2023-04-30T09:31:27;1021.9;;;15.8;26.9
57799;BME280;43626;53.866;30.298;2023-04-30T09:36:56;1022;;;15.9;28
57799;BME280;43626;53.866;30.298;2023-04-30T09:41:23;1021.9;;;16;27.6
57799;BME280;43626;53.866;30.298;2023-04-30T09:46:21;1021.9;;;16;27.4
57799;BME280;43626;53.866;30.298;2023-04-30T09:51:52;1021.9;;;15.9;27.7
57799;BME280;43626;53.866;30.298;2023-04-30T09:57:03;1021.9;;;16;27
57799;BME280;43626;53.866;30.298;2023-04-30T10:01:31;1021.8;;;16.1;26.2
57799;BME280;43626;53.866;30.298;2023-04-30T10:06:39;1021.7;;;16.2;26.8
57799;BME280;43626;53.866;30.298;2023-04-30T10:11:27;1021.6;;;16.3;26.1
57799;BME280;43626;53.866;30.298;2023-04-30T10:17:02;1021.5;;;16.4;26.7
57799;BME280;43626;53.866;30.298;2023-04-30T10:21:55;1021.5;;;16.5;27
57799;BME280;43626;53.866;30.298;2023-04-30T10:27:03;1021.4;;;16.6;26.9
57799;BME280;43626;53.866;30.298;2023-04-30T10:32:03;1021.3;;;16.7;26.3
57799;BME280;43626;53.866;30.298;2023-04-30T10:36:42;1021.3;;;16.8;25.8
57799;BME280;43626;53.866;30.298;2023-04-30T10:41:15;1021.2;;;16.9;25.7
57799;BME280;43626;53.866;30.298;2023-04-30T10:46:22;1021.2;;;17;25.7
57799;BME280;43626;53.866;30.298;2023-04-30T10:52:02;1021.1;;;17;25.2
57799;BME280;43626;53.866;30.298;2023-04-30T10:56:28;1021.1;;;17.1;24.5
57799;BME280;43626;53.866;30.298;2023-04-30T11:02:03;1021;;;17.2;23.6
57799;BME280;43626;53.866;30.298;2023-04-30T11:07:07;1020.9;;;17.2;24.9
57799;BME280;43626;53.866;30.298;2023-04-30T11:11:25;1020.9;;;17.2;25.6
57799;BME280;43626;53.866;30.298;2023-04-30T11:16:39;1020.8;;;17.2;24.2
57799;BME280;43626;53.866;30.298;2023-04-30T11:21:23;1020.8;;;17.3;25
57799;BME280;43626;53.866;30.298;2023-04-30T11:27:01;1020.7;;;17.5;24.6
57799;BME280;43626;53.866;30.298;2023-04-30T11:31:55;1020.6;;;17.5;24
57799;BME280;43626;53.866;30.298;2023-04-30T11:36:41;1020.5;;;17.7;24.7
57799;BME280;43626;53.866;30.298;2023-04-30T11:42:03;1020.4;;;17.9;25.1
57799;BME280;43626;53.866;30.298;2023-04-30T11:46:55;1020.3;;;18;25.2
57799;BME280;43626;53.866;30.298;2023-04-30T11:51:15;1020.3;;;18;25.1
57799;BME280;43626;53.866;30.298;2023-04-30T11:56:36;1020.2;;;18.1;24.8
57799;BME280;43626;53.866;30.298;2023-04-30T12:02:03;1020.2;;;18.1;24.4
57799;BME280;43626;53.866;30.298;2023-04-30T12:06:23;1020.1;;;18.1;23.6
57799;BME280;43626;53.866;30.298;2023-04-30T12:12:03;1020.1;;;18.1;23.1
57799;BME280;43626;53.866;30.298;2023-04-30T12:17:03;1020;;;18.3;24.7
57799;BME280;43626;53.866;30.298;2023-04-30T12:21:15;1020;;;18.4;24.5
57799;BME280;43626;53.866;30.298;2023-04-30T12:26:37;1019.9;;;18.6;23.8
57799;BME280;43626;53.866;30.298;2023-04-30T12:31:41;1019.8;;;18.7;23.7
57799;BME280;43626;53.866;30.298;2023-04-30T12:36:15;1019.6;;;18.8;24.1
57799;BME280;43626;53.866;30.298;2023-04-30T12:42:01;1019.5;;;18.9;24.3
57799;BME280;43626;53.866;30.298;2023-04-30T12:46:24;1019.5;;;18.8;23.1
57799;BME280;43626;53.866;30.298;2023-04-30T12:51:33;1019.4;;;18.6;22.8
57799;BME280;43626;53.866;30.298;2023-04-30T12:56:55;1019.3;;;18.7;24.1
57799;BME280;43626;53.866;30.298;2023-04-30T13:02:04;1019.3;;;18.7;24.6
57799;BME280;43626;53.866;30.298;2023-04-30T13:06:15;1019.3;;;18.8;24
57799;BME280;43626;53.866;30.298;2023-04-30T13:11:15;1019.3;;;19;23.2
57799;BME280;43626;53.866;30.298;2023-04-30T13:16:15;1019.3;;;19.2;23.3
57799;BME280;43626;53.866;30.298;2023-04-30T13:22:03;1019.2;;;19.3;23.6
57799;BME280;43626;53.866;30.298;2023-04-30T13:26:27;1019.1;;;19.2;23.2
57799;BME280;43626;53.866;30.298;2023-04-30T13:32:03;1019.1;;;19.3;23.2
57799;BME280;43626;53.866;30.298;2023-04-30T13:37:03;1019;;;19.5;23.2
57799;BME280;43626;53.866;30.298;2023-04-30T13:41:39;1019;;;19.5;23
57799;BME280;43626;53.866;30.298;2023-04-30T13:46:27;1019;;;19.1;22.8
57799;BME280;43626;53.866;30.298;2023-04-30T13:51:33;1018.9;;;18.9;23.3
57799;BME280;43626;53.866;30.298;2023-04-30T13:57:03;1018.9;;;18.7;23.3
57799;BME280;43626;53.866;30.298;2023-04-30T14:01:29;1018.9;;;18.5;23.1
57799;BME280;43626;53.866;30.298;2023-04-30T14:07:01;1018.9;;;18.6;23.4
57799;BME280;43626;53.866;30.298;2023-04-30T14:12:01;1018.8;;;18.7;23.5
57799;BME280;43626;53.866;30.298;2023-04-30T14:16:53;1018.8;;;18.7;24
57799;BME280;43626;53.866;30.298;2023-04-30T14:21:31;1018.8;;;18.5;23.8
57799;BME280;43626;53.866;30.298;2023-04-30T14:26:49;1018.8;;;18.6;23.5
57799;BME280;43626;53.866;30.298;2023-04-30T14:32:01;1018.7;;;18.6;23.7
57799;BME280;43626;53.866;30.298;2023-04-30T14:36:53;1018.7;;;18.6;23.8
57799;BME280;43626;53.866;30.298;2023-04-30T14:41:32;1018.7;;;18.6;24.1
57799;BME280;43626;53.866;30.298;2023-04-30T14:47:01;1018.7;;;18.4;24.4
57799;BME280;43626;53.866;30.298;2023-04-30T14:51:45;1018.6;;;18.4;24.6
57799;BME280;43626;53.866;30.298;2023-04-30T14:57:01;1018.6;;;18.4;24.7
57799;BME280;43626;53.866;30.298;2023-04-30T15:01:33;1018.6;;;18.4;24.3
57799;BME280;43626;53.866;30.298;2023-04-30T15:07:01;1018.6;;;18.4;24.2
57799;BME280;43626;53.866;30.298;2023-04-30T15:11:21;1018.5;;;18.5;24.2
57799;BME280;43626;53.866;30.298;2023-04-30T15:16:49;1018.5;;;18.6;24
57799;BME280;43626;53.866;30.298;2023-04-30T15:21:49;1018.5;;;18.6;24.5
57799;BME280;43626;53.866;30.298;2023-04-30T15:26:15;1018.5;;;18.4;24.6
57799;BME280;43626;53.866;30.298;2023-04-30T15:31:45;1018.4;;;18.5;24.6
57799;BME280;43626;53.866;30.298;2023-04-30T15:36:15;1018.4;;;18.6;24.8
57799;BME280;43626;53.866;30.298;2023-04-30T15:41:21;1018.3;;;18.6;24.9
57799;BME280;43626;53.866;30.298;2023-04-30T15:46:53;1018.3;;;18.6;25
57799;BME280;43626;53.866;30.298;2023-04-30T15:52:01;1018.3;;;18.6;25.3
57799;BME280;43626;53.866;30.298;2023-04-30T15:56:27;1018.3;;;18.5;25
57799;BME280;43626;53.866;30.298;2023-04-30T16:01:43;1018.2;;;18.6;24.7
57799;BME280;43626;53.866;30.298;2023-04-30T16:06:53;1018.2;;;18.5;24.9
57799;BME280;43626;53.866;30.298;2023-04-30T16:11:27;1018.2;;;18.4;25.1
57799;BME280;43626;53.866;30.298;2023-04-30T16:16:37;1018.1;;;18.4;25.4
57799;BME280;43626;53.866;30.298;2023-04-30T16:21:15;1018.1;;;18.4;26
57799;BME280;43626;53.866;30.298;2023-04-30T16:27:01;1018.1;;;18.2;26.7
57799;BME280;43626;53.866;30.298;2023-04-30T16:31:25;1018;;;17.9;26.9
57799;BME280;43626;53.866;30.298;2023-04-30T16:36:15;1018;;;17.7;28.6
57799;BME280;43626;53.866;30.298;2023-04-30T16:42:03;1018;;;17.5;29.2
57799;BME280;43626;53.866;30.298;2023-04-30T16:46:41;1018;;;17.2;30.9
57799;BME280;43626;53.866;30.298;2023-04-30T16:51:35;1018.1;;;16.9;32.1
57799;BME280;43626;53.866;30.298;2023-04-30T16:56:35;1018.5;;;16.5;32
57799;BME280;43626;53.866;30.298;2023-04-30T17:01:59;1018.7;;;15.8;34.1
57799;BME280;43626;53.866;30.298;2023-04-30T17:06:27;1018.8;;;15.3;35.2
57799;BME280;43626;53.866;30.298;2023-04-30T17:12:01;1018.9;;;14.8;36.5
57799;BME280;43626;53.866;30.298;2023-04-30T17:17:01;1018.9;;;14.5;37.6
57799;BME280;43626;53.866;30.298;2023-04-30T17:21:45;1019;;;14.1;38.5
57799;BME280;43626;53.866;30.298;2023-04-30T17:26:15;1019.1;;;13.8;39.5
57799;BME280;43626;53.866;30.298;2023-04-30T17:32:01;1019.2;;;13.4;41.4
57799;BME280;43626;53.866;30.298;2023-04-30T17:36:53;1019.2;;;13;42.6
57799;BME280;43626;53.866;30.298;2023-04-30T17:42:01;1019.3;;;12.8;43
57799;BME280;43626;53.866;30.298;2023-04-30T17:46:49;1019.4;;;12.6;43.2
57799;BME280;43626;53.866;30.298;2023-04-30T17:51:45;1019.5;;;12.4;43.6
57799;BME280;43626;53.866;30.298;2023-04-30T17:57:01;1019.5;;;12.3;43.4
57799;BME280;43626;53.866;30.298;2023-04-30T18:01:15;1019.5;;;12.2;42.8
57799;BME280;43626;53.866;30.298;2023-04-30T18:06:15;1019.6;;;12.1;42.8
57799;BME280;43626;53.866;30.298;2023-04-30T18:11:45;1019.7;;;12.1;42.9
57799;BME280;43626;53.866;30.298;2023-04-30T18:16:25;1019.7;;;12.2;42.9
57799;BME280;43626;53.866;30.298;2023-04-30T18:22:01;1019.8;;;12.1;43.8
57799;BME280;43626;53.866;30.298;2023-04-30T18:26:43;1019.8;;;12;44.4
57799;BME280;43626;53.866;30.298;2023-04-30T18:31:15;1019.8;;;11.9;45
57799;BME280;43626;53.866;30.298;2023-04-30T18:36:45;1019.8;;;11.9;45.5
57799;BME280;43626;53.866;30.298;2023-04-30T18:41:41;1019.8;;;12;45.6
57799;BME280;43626;53.866;30.298;2023-04-30T18:46:27;1019.9;;;12.1;45.4
57799;BME280;43626;53.866;30.298;2023-04-30T18:51:29;1019.9;;;12.1;45.1
57799;BME280;43626;53.866;30.298;2023-04-30T18:57:01;1019.9;;;12;45.3
57799;BME280;43626;53.866;30.298;2023-04-30T19:01:27;1019.9;;;12;45.4
57799;BME280;43626;53.866;30.298;2023-04-30T19:06:45;1019.9;;;12.1;45.3
57799;BME280;43626;53.866;30.298;2023-04-30T19:11:53;1019.9;;;12;45.4
57799;BME280;43626;53.866;30.298;2023-04-30T19:16:17;1019.9;;;11.9;46.2
57799;BME280;43626;53.866;30.298;2023-04-30T19:21:37;1019.9;;;11.7;46.9
57799;BME280;43626;53.866;30.298;2023-04-30T19:26:49;1019.9;;;11.7;47.4
57799;BME280;43626;53.866;30.298;2023-04-30T19:32:01;1020;;;11.6;47
57799;BME280;43626;53.866;30.298;2023-04-30T19:37:01;1020.1;;;11.4;46.6
57799;BME280;43626;53.866;30.298;2023-04-30T19:41:33;1020.1;;;11.3;46.5
57799;BME280;43626;53.866;30.298;2023-04-30T19:46:45;1020.1;;;11.2;46.6
57799;BME280;43626;53.866;30.298;2023-04-30T19:51:53;1020;;;11.1;46.9
57799;BME280;43626;53.866;30.298;2023-04-30T19:56:27;1020;;;11;47
57799;BME280;43626;53.866;30.298;2023-04-30T20:01:31;1020.1;;;10.9;47.2
57799;BME280;43626;53.866;30.298;2023-04-30T20:06:59;1020.1;;;10.7;47.3
57799;BME280;43626;53.866;30.298;2023-04-30T20:11:29;1020.2;;;10.6;47.8
57799;BME280;43626;53.866;30.298;2023-04-30T20:16:49;1020.2;;;10.5;48.6
57799;BME280;43626;53.866;30.298;2023-04-30T20:22:01;1020.2;;;10.5;49.5
57799;BME280;43626;53.866;30.298;2023-04-30T20:26:15;1020.1;;;10.4;49.8
57799;BME280;43626;53.866;30.298;2023-04-30T20:31:37;1020.1;;;10.5;49.5
57799;BME280;43626;53.866;30.298;2023-04-30T20:36:27;1020.1;;;10.5;49.1
57799;BME280;43626;53.866;30.298;2023-04-30T20:41:45;1020.2;;;10.4;48.8
57799;BME280;43626;53.866;30.298;2023-04-30T20:46:53;1020.2;;;10.3;48.8
57799;BME280;43626;53.866;30.298;2023-04-30T20:51:15;1020.2;;;10.2;48.8
57799;BME280;43626;53.866;30.298;2023-04-30T20:56:59;1020.2;;;10.1;48.7
57799;BME280;43626;53.866;30.298;2023-04-30T21:01:45;1020.2;;;10.1;48.6
57799;BME280;43626;53.866;30.298;2023-04-30T21:06:29;1020.3;;;9.9;48.6
57799;BME280;43626;53.866;30.298;2023-04-30T21:11:35;1020.4;;;9.8;48.9
57799;BME280;43626;53.866;30.298;2023-04-30T21:17:03;1020.4;;;9.8;49.2
57799;BME280;43626;53.866;30.298;2023-04-30T21:21:15;1020.4;;;9.8;49.4
57799;BME280;43626;53.866;30.298;2023-04-30T21:26:49;1020.4;;;9.8;49.4
57799;BME280;43626;53.866;30.298;2023-04-30T21:31:49;1020.4;;;9.7;49.3
57799;BME280;43626;53.866;30.298;2023-04-30T21:36:15;1020.4;;;9.7;49.2
57799;BME280;43626;53.866;30.298;2023-04-30T21:41:45;1020.4;;;9.7;49.4
57799;BME280;43626;53.866;30.298;2023-04-30T21:46:47;1020.4;;;9.7;49.4
57799;BME280;43626;53.866;30.298;2023-04-30T21:51:27;1020.4;;;9.6;49.6
57799;BME280;43626;53.866;30.298;2023-04-30T21:56:53;1020.3;;;9.5;50.3
57799;BME280;43626;53.866;30.298;2023-04-30T22:02:01;1020.3;;;9.6;50.7
57799;BME280;43626;53.866;30.298;2023-04-30T22:06:27;1020.3;;;9.6;50.8
57799;BME280;43626;53.866;30.298;2023-04-30T22:12:01;1020.2;;;9.5;51
57799;BME280;43626;53.866;30.298;2023-04-30T22:16:53;1020.2;;;9.5;51.3
57799;BME280;43626;53.866;30.298;2023-04-30T22:21:43;1020.2;;;9.4;51.3
57799;BME280;43626;53.866;30.298;2023-04-30T22:26:37;1020.2;;;9.4;51.4
57799;BME280;43626;53.866;30.298;2023-04-30T22:31:49;1020.3;;;9.3;51.5
57799;BME280;43626;53.866;30.298;2023-04-30T22:37:01;1020.4;;;9.2;51.8
57799;BME280;43626;53.866;30.298;2023-04-30T22:42:01;1020.4;;;9.1;52.1
57799;BME280;43626;53.866;30.298;2023-04-30T22:46:15;1020.4;;;9.1;52.3
57799;BME280;43626;53.866;30.298;2023-04-30T22:51:59;1020.4;;;9;53.2
57799;BME280;43626;53.866;30.298;2023-04-30T22:56:53;1020.5;;;8.9;54.1
57799;BME280;43626;53.866;30.298;2023-04-30T23:01:15;1020.5;;;8.8;54.6
57799;BME280;43626;53.866;30.298;2023-04-30T23:06:33;1020.5;;;8.7;54.9
57799;BME280;43626;53.866;30.298;2023-04-30T23:12:01;1020.6;;;8.6;55.3
57799;BME280;43626;53.866;30.298;2023-04-30T23:16:49;1020.6;;;8.6;55.5
57799;BME280;43626;53.866;30.298;2023-04-30T23:21:49;1020.6;;;8.5;55.3
57799;BME280;43626;53.866;30.298;2023-04-30T23:27:01;1020.6;;;8.5;55.3
57799;BME280;43626;53.866;30.298;2023-04-30T23:31:43;1020.6;;;8.5;55.3
57799;BME280;43626;53.866;30.298;2023-04-30T23:36:37;1020.6;;;8.5;55.4
57799;BME280;43626;53.866;30.298;2023-04-30T23:41:41;1020.7;;;8.5;55.4
57799;BME280;43626;53.866;30.298;2023-04-30T23:46:15;1020.7;;;8.5;55.5
57799;BME280;43626;53.866;30.298;2023-04-30T23:51:43;1020.7;;;8.5;55.9
57799;BME280;43626;53.866;30.298;2023-04-30T23:56:39;1020.7;;;8.4;55.8
